Time;durP1;ratioP1;P1;durP2;ratioP2;P2;SDS_P1;SDS_P2;PMS_P1;PMS_P2;Temp;Humidity;BMP_temperature;BMP_pressure;BME280_temperature;BME280_humidity;BME280_pressure;Samples;Min_cycle;Max_cycle;Signal;HPM_P1;HPM_P2
2022/04/19 00:01:48;;;;;;;6.47;3.00;;;;;;;12.75;46.13;100322.13;5084571;28;20222;-66
2022/04/19 00:04:19;;;;;;;5.87;2.80;;;;;;;12.74;45.94;100331.91;5081640;28;20260;-66
2022/04/19 00:06:46;;;;;;;7.27;3.23;;;;;;;12.73;46.15;100319.63;5085197;28;20218;-67
2022/04/19 00:09:14;;;;;;;7.50;2.80;;;;;;;12.72;45.75;100323.25;5080340;28;20297;-66
2022/04/19 00:11:42;;;;;;;5.93;2.83;;;;;;;12.71;45.83;100320.78;5080286;28;20211;-66
2022/04/19 00:14:10;;;;;;;6.97;3.07;;;;;;;12.65;45.85;100321.44;5083449;28;20219;-67
2022/04/19 00:16:40;;;;;;;7.53;3.20;;;;;;;12.61;46.14;100326.25;5088198;28;20298;-66
2022/04/19 00:19:07;;;;;;;6.13;2.87;;;;;;;12.64;45.92;100315.28;5083891;28;20701;-66
2022/04/19 00:21:35;;;;;;;7.07;2.80;;;;;;;12.54;46.37;100316.44;5084891;28;20210;-66
2022/04/19 00:24:03;;;;;;;5.83;2.50;;;;;;;12.48;46.28;100325.06;5085465;28;20711;-66
2022/04/19 00:26:31;;;;;;;6.53;2.77;;;;;;;12.48;46.27;100319.75;5085648;28;20232;-66
2022/04/19 00:28:59;;;;;;;5.27;3.03;;;;;;;12.47;46.48;100318.91;5083902;28;20211;-66
2022/04/19 00:31:27;;;;;;;6.10;2.80;;;;;;;12.48;46.34;100319.75;5082734;28;20215;-66
2022/04/19 00:33:57;;;;;;;6.83;3.07;;;;;;;12.49;46.27;100314.25;5083629;28;20651;-69
2022/04/19 00:36:26;;;;;;;5.90;2.97;;;;;;;12.46;46.58;100319.06;5085662;28;20203;-66
2022/04/19 00:38:53;;;;;;;8.57;3.40;;;;;;;12.45;46.81;100323.56;5085238;28;20212;-66
2022/04/19 00:41:21;;;;;;;7.80;2.77;;;;;;;12.40;46.96;100320.56;5083274;28;20300;-67
2022/04/19 00:43:49;;;;;;;4.47;2.37;;;;;;;12.40;46.73;100318.72;5085257;28;20216;-68
2022/04/19 00:46:16;;;;;;;5.17;3.10;;;;;;;12.40;46.68;100313.41;5087196;28;20221;-66
2022/04/19 00:48:44;;;;;;;5.20;2.70;;;;;;;12.40;46.66;100309.94;5085329;28;20225;-66
2022/04/19 00:51:14;;;;;;;4.83;2.70;;;;;;;12.39;46.77;100306.44;5084200;28;20676;-66
2022/04/19 00:53:43;;;;;;;7.47;2.80;;;;;;;12.21;47.37;100304.91;5083477;28;20238;-66
2022/04/19 00:56:11;;;;;;;6.40;2.67;;;;;;;12.16;47.59;100304.53;5085583;28;20303;-66
2022/04/19 00:58:39;;;;;;;6.43;3.00;;;;;;;12.13;47.17;100295.09;5084516;28;20231;-66
2022/04/19 01:01:08;;;;;;;6.07;3.00;;;;;;;12.13;47.24;100295.09;5084723;28;20220;-66
2022/04/19 01:03:37;;;;;;;5.97;2.63;;;;;;;12.15;47.26;100298.41;5084085;28;20207;-66
2022/04/19 01:06:07;;;;;;;5.93;2.33;;;;;;;12.16;46.91;100294.75;5084500;28;20207;-66
2022/04/19 01:08:38;;;;;;;4.10;2.67;;;;;;;12.18;46.84;100298.09;5084298;28;20237;-68
2022/04/19 01:13:53;;;;;;;5.57;2.50;;;;;;;12.14;47.00;100291.41;5049445;28;20230;-67
2022/04/19 01:16:20;;;;;;;4.50;2.80;;;;;;;12.13;47.08;100289.78;5082127;28;20211;-67
2022/04/19 01:18:48;;;;;;;5.20;2.47;;;;;;;12.12;46.92;100285.44;5086308;28;20299;-67
2022/04/19 01:21:16;;;;;;;5.30;2.50;;;;;;;12.06;47.35;100281.59;5084848;28;20210;-67
2022/04/19 01:23:45;;;;;;;5.63;2.70;;;;;;;12.05;47.37;100279.09;5081979;28;20273;-67
2022/04/19 01:26:13;;;;;;;5.23;2.50;;;;;;;12.03;47.70;100278.44;5082438;28;20582;-66
2022/04/19 01:28:42;;;;;;;5.90;3.00;;;;;;;12.00;47.59;100282.25;5082783;28;20219;-66
2022/04/19 01:31:11;;;;;;;4.67;2.40;;;;;;;11.98;47.79;100292.19;5084222;28;20295;-66
2022/04/19 01:33:39;;;;;;;8.93;3.43;;;;;;;11.96;47.92;100286.22;5083512;28;20203;-67
2022/04/19 01:36:10;;;;;;;5.73;3.20;;;;;;;11.93;47.98;100277.75;5083194;28;20214;-66
2022/04/19 01:38:37;;;;;;;4.57;2.50;;;;;;;11.90;47.47;100280.72;5082259;28;20206;-66
2022/04/19 01:41:08;;;;;;;4.03;2.47;;;;;;;11.92;47.38;100276.09;5084382;28;20713;-66
2022/04/19 01:43:36;;;;;;;5.80;2.80;;;;;;;11.91;47.63;100277.06;5082102;28;20589;-66
2022/04/19 01:46:04;;;;;;;4.60;2.93;;;;;;;11.90;47.89;100272.75;5084354;28;21008;-66
2022/04/19 01:48:32;;;;;;;11.27;2.83;;;;;;;11.90;47.65;100273.59;5084675;28;20201;-66
2022/04/19 01:50:59;;;;;;;8.53;2.83;;;;;;;11.87;47.64;100270.44;5082798;28;20610;-65
2022/04/19 01:53:27;;;;;;;3.80;2.17;;;;;;;11.88;47.44;100264.94;5083918;28;20243;-66
2022/04/19 01:55:55;;;;;;;7.43;2.53;;;;;;;11.89;47.29;100266.59;5079693;28;20240;-66
2022/04/19 01:58:24;;;;;;;5.57;2.50;;;;;;;11.87;47.28;100265.13;5084874;28;20294;-66
2022/04/19 02:00:52;;;;;;;8.53;2.83;;;;;;;11.85;47.35;100259.13;5083723;28;20211;-66
2022/04/19 02:03:20;;;;;;;5.23;2.70;;;;;;;11.83;47.33;100266.41;5082604;28;20202;-65
2022/04/19 02:05:47;;;;;;;7.83;3.10;;;;;;;11.84;47.31;100257.47;5086514;28;20646;-68
2022/04/19 02:08:15;;;;;;;5.67;2.80;;;;;;;11.80;47.63;100261.41;5081013;28;20213;-67
2022/04/19 02:10:43;;;;;;;6.00;2.67;;;;;;;11.78;47.83;100252.81;5080137;28;20199;-67
2022/04/19 02:13:13;;;;;;;7.30;2.80;;;;;;;11.74;48.08;100256.72;5087406;28;20301;-67
2022/04/19 02:15:43;;;;;;;5.40;2.70;;;;;;;11.74;48.02;100259.38;5080282;28;20249;-67
2022/04/19 02:18:11;;;;;;;7.60;2.97;;;;;;;11.66;47.72;100261.03;5083282;28;20226;-65
2022/04/19 02:20:39;;;;;;;4.90;2.67;;;;;;;11.65;47.98;100251.38;5081709;28;20540;-67
2022/04/19 02:23:07;;;;;;;6.40;2.83;;;;;;;11.61;48.30;100258.00;5083583;28;20234;-67
2022/04/19 02:25:34;;;;;;;7.93;3.20;;;;;;;11.57;48.63;100246.03;5085882;28;20214;-66
2022/04/19 02:28:03;;;;;;;4.53;2.60;;;;;;;11.58;48.75;100247.72;5085798;28;20575;-66
2022/04/19 02:30:31;;;;;;;6.37;3.00;;;;;;;11.56;48.80;100248.84;5083871;28;20738;-66
2022/04/19 02:33:02;;;;;;;5.73;2.60;;;;;;;11.50;49.01;100250.34;5083938;28;20229;-66
2022/04/19 02:35:31;;;;;;;6.20;2.80;;;;;;;11.48;48.80;100252.31;5083570;28;20674;-66
2022/04/19 02:38:00;;;;;;;5.93;3.13;;;;;;;11.44;49.23;100247.47;5079036;28;20213;-66
2022/04/19 02:40:28;;;;;;;5.47;3.10;;;;;;;11.42;49.25;100244.16;5080378;28;20205;-66
2022/04/19 02:42:56;;;;;;;6.83;3.30;;;;;;;11.39;49.07;100257.72;5080896;28;20661;-66
2022/04/19 02:45:24;;;;;;;7.13;3.23;;;;;;;11.42;48.66;100246.81;5079792;28;20317;-66
2022/04/19 02:48:04;;;;;;;9.10;3.60;;;;;;;11.32;48.79;100257.53;5081254;28;20220;-66
2022/04/19 02:50:33;;;;;;;10.50;2.70;;;;;;;11.15;49.30;100255.78;5079917;28;20346;-66
2022/04/19 02:53:03;;;;;;;6.77;2.73;;;;;;;10.89;50.03;100251.31;5080883;28;20223;-66
2022/04/19 02:55:30;;;;;;;5.37;2.97;;;;;;;10.76;50.21;100258.84;5083274;28;20253;-66
2022/04/19 02:57:58;;;;;;;6.23;3.43;;;;;;;10.78;50.27;100248.91;5083552;28;20303;-66
2022/04/19 03:00:26;;;;;;;6.43;3.50;;;;;;;10.74;50.50;100247.53;5080138;28;21498;-66
2022/04/19 03:02:54;;;;;;;5.77;2.83;;;;;;;10.73;50.88;100245.88;5082030;28;20231;-66
2022/04/19 03:05:23;;;;;;;6.83;3.23;;;;;;;10.77;50.51;100255.19;5083687;28;20554;-66
2022/04/19 03:07:50;;;;;;;9.17;3.63;;;;;;;10.83;50.78;100251.09;5081916;28;20834;-66
2022/04/19 03:10:18;;;;;;;6.07;3.40;;;;;;;10.90;50.35;100253.00;5080495;28;20236;-66
2022/04/19 03:12:46;;;;;;;5.13;2.90;;;;;;;10.92;50.05;100251.00;5081992;28;20214;-66
2022/04/19 03:15:14;;;;;;;4.97;2.73;;;;;;;10.90;50.09;100252.16;5081298;28;20228;-66
2022/04/19 03:17:43;;;;;;;7.10;2.90;;;;;;;10.88;50.13;100254.97;5076875;28;20653;-66
2022/04/19 03:20:12;;;;;;;6.93;3.03;;;;;;;10.86;50.48;100246.31;5079670;28;20693;-66
2022/04/19 03:28:23;;;;;;;6.67;3.17;;;;;;;10.69;50.97;100236.56;5066428;28;20307;-66
2022/04/19 03:30:51;;;;;;;4.90;2.77;;;;;;;10.71;51.30;100239.91;5079703;28;20504;-66
2022/04/19 03:33:19;;;;;;;7.90;2.80;;;;;;;10.74;51.07;100239.59;5081678;28;20783;-68
2022/04/19 03:35:46;;;;;;;7.13;3.20;;;;;;;10.75;51.29;100241.25;5081521;28;20239;-67
2022/04/19 03:38:16;;;;;;;7.23;3.20;;;;;;;10.75;51.62;100235.13;5084335;28;20202;-67
2022/04/19 03:40:44;;;;;;;8.67;3.30;;;;;;;10.74;51.12;100236.94;5080655;28;20207;-67
2022/04/19 03:43:11;;;;;;;7.70;3.20;;;;;;;10.73;51.25;100243.22;5088690;28;20217;-67
2022/04/19 03:45:39;;;;;;;6.93;3.30;;;;;;;10.73;51.43;100239.75;5083181;28;20206;-67
2022/04/19 03:48:07;;;;;;;6.77;2.90;;;;;;;10.69;51.56;100235.75;5082454;28;20223;-67
2022/04/19 03:50:35;;;;;;;8.03;2.87;;;;;;;10.64;51.79;100246.81;5083462;28;20204;-67
2022/04/19 03:53:03;;;;;;;9.27;3.23;;;;;;;10.60;51.56;100239.31;5079647;28;20549;-67
2022/04/19 03:55:32;;;;;;;9.50;3.40;;;;;;;10.55;51.54;100240.59;5079238;28;20330;-67
2022/04/19 03:58:00;;;;;;;5.53;3.07;;;;;;;10.51;51.64;100251.66;5084907;28;20242;-67
2022/04/19 04:00:27;;;;;;;5.63;3.03;;;;;;;10.50;51.41;100247.34;5082731;28;20538;-67
2022/04/19 04:02:55;;;;;;;5.17;3.00;;;;;;;10.48;51.37;100246.66;5083866;28;20683;-67
2022/04/19 04:05:24;;;;;;;6.27;2.80;;;;;;;10.45;51.07;100252.28;5082876;28;20204;-68
2022/04/19 04:07:52;;;;;;;6.43;3.10;;;;;;;10.42;50.88;100242.81;5084599;28;20608;-67
2022/04/19 04:10:20;;;;;;;5.17;2.93;;;;;;;10.41;50.86;100246.44;5081230;28;20216;-67
2022/04/19 04:12:49;;;;;;;5.23;2.70;;;;;;;10.43;50.74;100248.97;5079974;28;20216;-67
2022/04/19 04:15:17;;;;;;;8.53;3.17;;;;;;;10.41;50.86;100250.91;5083114;28;20207;-66
2022/04/19 04:17:44;;;;;;;5.80;2.70;;;;;;;10.42;51.08;100253.41;5078671;28;20202;-66
2022/04/19 04:20:12;;;;;;;6.77;3.03;;;;;;;10.42;50.97;100249.94;5080559;28;20606;-66
2022/04/19 04:22:40;;;;;;;5.20;2.80;;;;;;;10.38;51.06;100260.00;5084940;28;20200;-66
2022/04/19 04:25:08;;;;;;;8.07;3.10;;;;;;;10.36;51.32;100247.91;5083059;28;20302;-66
2022/04/19 04:27:36;;;;;;;6.17;3.10;;;;;;;10.35;51.07;100240.94;5083582;28;20254;-66
2022/04/19 04:30:07;;;;;;;6.33;3.00;;;;;;;10.33;50.98;100242.91;5079979;28;20210;-67
2022/04/19 04:32:34;;;;;;;4.87;2.57;;;;;;;10.35;51.03;100247.06;5081179;28;20505;-66
2022/04/19 04:35:02;;;;;;;4.93;2.77;;;;;;;10.37;50.82;100238.97;5079863;28;20304;-66
2022/04/19 04:37:30;;;;;;;4.63;2.97;;;;;;;10.38;50.89;100245.94;5079862;28;20257;-66
2022/04/19 04:39:59;;;;;;;6.33;2.90;;;;;;;10.37;51.06;100249.56;5079728;28;20253;-66
2022/04/19 04:42:27;;;;;;;11.77;2.97;;;;;;;10.39;50.68;100252.88;5080630;28;20217;-66
2022/04/19 04:44:55;;;;;;;8.27;2.93;;;;;;;10.39;50.87;100248.41;5079700;28;20300;-66
2022/04/19 04:50:10;;;;;;;4.27;2.63;;;;;;;10.36;50.83;100246.09;5081206;28;20334;-66
2022/04/19 04:52:38;;;;;;;6.27;3.10;;;;;;;10.39;50.74;100253.72;5082665;28;20242;-66
2022/04/19 04:55:07;;;;;;;4.73;2.93;;;;;;;10.39;50.75;100253.72;5082519;28;20243;-66
2022/04/19 04:57:35;;;;;;;5.17;2.67;;;;;;;10.39;50.87;100250.22;5078859;28;21419;-66
2022/04/19 05:00:04;;;;;;;5.57;3.20;;;;;;;10.39;50.90;100256.38;5081172;28;20297;-66
2022/04/19 05:02:33;;;;;;;9.63;2.80;;;;;;;10.41;50.87;100250.91;5087396;28;20210;-67
2022/04/19 05:05:01;;;;;;;7.50;2.93;;;;;;;10.43;50.96;100254.25;5083168;28;20241;-67
2022/04/19 05:07:29;;;;;;;5.57;3.17;;;;;;;10.48;50.76;100257.28;5084816;28;20240;-67
2022/04/19 05:09:58;;;;;;;6.47;3.07;;;;;;;10.51;50.65;100254.31;5081806;28;20215;-67
2022/04/19 05:12:26;;;;;;;8.37;3.33;;;;;;;10.52;50.92;100258.66;5082660;28;20591;-67
2022/04/19 05:14:53;;;;;;;6.73;3.00;;;;;;;10.54;50.79;100257.53;5085313;28;20234;-67
2022/04/19 05:17:21;;;;;;;7.40;2.87;;;;;;;10.58;50.47;100258.03;5086889;28;20235;-67
2022/04/19 05:19:50;;;;;;;6.13;2.70;;;;;;;10.59;50.53;100262.34;5082711;28;20888;-67
2022/04/19 05:22:17;;;;;;;6.90;3.53;;;;;;;10.62;50.35;100255.91;5085681;28;20564;-67
2022/04/19 05:24:45;;;;;;;6.50;3.10;;;;;;;10.63;50.66;100250.47;5081285;28;20207;-67
2022/04/19 05:27:13;;;;;;;8.57;3.20;;;;;;;10.67;50.54;100258.91;5085014;28;20206;-67
2022/04/19 05:29:41;;;;;;;8.57;3.23;;;;;;;10.71;50.31;100257.66;5083925;28;20207;-67
2022/04/19 05:32:09;;;;;;;7.43;3.23;;;;;;;10.78;49.73;100264.81;5081749;28;20215;-67
2022/04/19 05:34:37;;;;;;;6.03;3.00;;;;;;;10.84;49.44;100266.00;5082120;28;20299;-67
2022/04/19 05:37:07;;;;;;;5.20;2.90;;;;;;;10.90;49.40;100262.75;5079519;28;20246;-67
2022/04/19 05:39:34;;;;;;;5.80;3.07;;;;;;;10.98;49.00;100270.78;5085750;28;20640;-67
2022/04/19 05:42:02;;;;;;;5.07;2.70;;;;;;;11.02;48.76;100272.13;5083590;28;20307;-68
2022/04/19 05:44:30;;;;;;;6.13;3.10;;;;;;;11.09;48.52;100273.16;5082358;28;20222;-67
2022/04/19 05:46:58;;;;;;;6.87;2.87;;;;;;;11.15;48.37;100271.72;5080845;28;20229;-67
2022/04/19 05:49:26;;;;;;;8.10;3.57;;;;;;;11.19;48.37;100273.03;5085510;28;20233;-68
2022/04/19 05:51:54;;;;;;;6.63;3.30;;;;;;;11.22;48.09;100276.25;5084190;28;20218;-67
2022/04/19 05:54:23;;;;;;;10.07;3.30;;;;;;;11.26;48.08;100274.06;5083650;28;20735;-68
2022/04/19 05:56:51;;;;;;;5.23;3.07;;;;;;;11.27;47.79;100281.88;5082812;28;20231;-67
2022/04/19 05:59:18;;;;;;;8.53;2.73;;;;;;;11.29;47.76;100281.75;5082021;28;20308;-67
2022/04/19 06:07:17;;;;;;;7.07;3.00;;;;;;;11.46;47.66;100280.00;5082152;28;20770;-65
2022/04/19 06:09:46;;;;;;;5.40;3.03;;;;;;;11.48;48.16;100284.19;5081109;28;20209;-66
2022/04/19 06:12:14;;;;;;;9.63;3.10;;;;;;;11.48;47.94;100276.22;5084275;28;20696;-67
2022/04/19 06:14:42;;;;;;;8.23;3.50;;;;;;;11.54;47.45;100278.22;5087642;28;20243;-70
2022/04/19 06:17:13;;;;;;;11.83;3.77;;;;;;;11.58;47.43;100268.97;5079517;28;20232;-68
2022/04/19 06:19:41;;;;;;;11.50;4.63;;;;;;;11.64;47.28;100278.09;5080157;28;20292;-68
2022/04/19 06:22:09;;;;;;;9.63;3.87;;;;;;;11.70;47.16;100270.31;5082643;28;20210;-69
2022/04/19 06:24:37;;;;;;;6.80;3.77;;;;;;;11.75;46.88;100279.69;5086192;28;20258;-68
2022/04/19 06:27:08;;;;;;;11.60;4.63;;;;;;;11.78;46.85;100274.06;5084947;28;20216;-66
2022/04/19 06:29:36;;;;;;;8.93;3.60;;;;;;;11.82;47.14;100278.03;5080968;28;20243;-66
2022/04/19 06:32:07;;;;;;;5.73;3.10;;;;;;;11.83;47.07;100272.56;5089282;28;20524;-66
2022/04/19 06:34:35;;;;;;;7.20;3.17;;;;;;;11.92;46.82;100276.09;5089467;28;20234;-66
2022/04/19 06:37:04;;;;;;;7.07;3.43;;;;;;;11.97;46.86;100284.38;5085944;28;20317;-65
2022/04/19 06:39:32;;;;;;;8.13;3.33;;;;;;;12.02;46.51;100287.41;5082803;28;20284;-66
2022/04/19 06:42:00;;;;;;;9.53;3.13;;;;;;;12.05;47.21;100287.91;5088907;28;20230;-66
2022/04/19 06:44:29;;;;;;;6.17;3.33;;;;;;;12.09;46.86;100280.44;5088485;28;20207;-65
2022/04/19 06:46:57;;;;;;;6.00;3.07;;;;;;;12.14;46.93;100280.78;5085945;28;20203;-68
2022/04/19 06:49:25;;;;;;;5.73;3.40;;;;;;;12.18;46.82;100290.09;5087124;28;20307;-67
2022/04/19 06:51:53;;;;;;;5.77;3.43;;;;;;;12.21;46.85;100288.97;5081817;28;20663;-68
2022/04/19 06:54:20;;;;;;;5.90;3.50;;;;;;;12.24;46.60;100276.16;5084373;28;20695;-67
2022/04/19 06:56:48;;;;;;;10.17;3.97;;;;;;;12.30;46.73;100283.50;5087871;28;20206;-68
2022/04/19 06:59:16;;;;;;;6.50;3.57;;;;;;;12.37;46.71;100279.19;5086844;28;20210;-68
2022/04/19 07:01:45;;;;;;;5.73;3.20;;;;;;;12.44;46.99;100277.53;5085208;28;20233;-67
2022/04/19 07:04:13;;;;;;;6.30;3.33;;;;;;;12.53;46.93;100282.84;5089026;28;20214;-67
2022/04/19 07:06:40;;;;;;;5.97;3.40;;;;;;;12.57;46.83;100273.56;5090281;28;20203;-68
2022/04/19 07:09:08;;;;;;;8.07;3.53;;;;;;;12.64;46.40;100274.53;5084448;28;20557;-67
2022/04/19 07:11:37;;;;;;;8.83;3.77;;;;;;;12.69;46.31;100280.19;5089047;28;20258;-68
2022/04/19 07:14:05;;;;;;;10.30;3.50;;;;;;;12.78;46.37;100273.88;5088221;28;20722;-67
2022/04/19 07:16:33;;;;;;;5.77;3.60;;;;;;;12.84;45.88;100275.84;5087263;28;20697;-67
2022/04/19 07:19:02;;;;;;;7.43;4.13;;;;;;;12.88;45.89;100277.19;5086372;28;20237;-67
2022/04/19 07:27:21;;;;;;;6.37;3.27;;;;;;;13.04;45.33;100268.34;5087241;28;20245;-68
2022/04/19 07:29:49;;;;;;;9.07;3.20;;;;;;;13.10;44.88;100273.84;5088145;28;20286;-68
2022/04/19 07:32:17;;;;;;;10.87;3.57;;;;;;;13.16;44.88;100273.19;5087283;28;20605;-67
2022/04/19 07:34:46;;;;;;;4.77;3.20;;;;;;;13.14;44.69;100269.03;5084591;28;20323;-67
2022/04/19 07:37:14;;;;;;;5.20;3.03;;;;;;;13.14;44.64;100274.38;5087230;28;20801;-67
2022/04/19 07:39:41;;;;;;;6.57;3.47;;;;;;;13.26;44.90;100272.19;5083850;28;20215;-67
2022/04/19 07:42:09;;;;;;;6.63;3.30;;;;;;;13.28;44.77;100268.34;5088595;28;20214;-67
2022/04/19 07:44:37;;;;;;;9.67;3.33;;;;;;;13.33;44.44;100274.00;5087667;28;20264;-67
2022/04/19 07:47:05;;;;;;;7.23;3.70;;;;;;;13.38;43.91;100270.81;5087695;28;20293;-67
2022/04/19 07:49:37;;;;;;;6.70;3.60;;;;;;;13.43;44.16;100271.97;5087055;28;20213;-67
2022/04/19 07:52:07;;;;;;;8.43;3.50;;;;;;;13.44;44.39;100275.47;5087226;28;20222;-68
2022/04/19 07:54:35;;;;;;;6.90;3.53;;;;;;;13.59;43.42;100279.06;5087056;28;20349;-68
2022/04/19 07:57:05;;;;;;;14.37;4.33;;;;;;;13.67;44.51;100264.88;5086722;28;20204;-68
2022/04/19 07:59:33;;;;;;;5.97;3.23;;;;;;;13.84;44.84;100277.97;5085359;28;20209;-68
2022/04/19 08:02:00;;;;;;;6.47;3.67;;;;;;;14.04;44.47;100272.22;5087086;28;20293;-68
2022/04/19 08:04:28;;;;;;;7.07;3.63;;;;;;;14.14;43.73;100262.16;5084907;28;20568;-68
2022/04/19 08:07:02;;;;;;;9.20;3.90;;;;;;;14.31;44.26;100269.03;5086954;28;20213;-68
2022/04/19 08:09:31;;;;;;;7.80;3.90;;;;;;;14.43;43.59;100270.31;5087866;28;20234;-68
2022/04/19 08:11:59;;;;;;;12.03;3.47;;;;;;;14.62;42.65;100261.00;5083726;28;20212;-68
2022/04/19 08:14:27;;;;;;;8.57;3.80;;;;;;;14.77;42.96;100271.75;5085362;28;20706;-68
2022/04/19 08:16:54;;;;;;;6.10;3.87;;;;;;;14.86;43.72;100273.31;5082045;28;20214;-68
2022/04/19 08:19:22;;;;;;;6.53;3.37;;;;;;;15.01;42.55;100263.50;5086001;28;20325;-67
2022/04/19 08:21:50;;;;;;;12.63;4.83;;;;;;;15.13;42.14;100263.91;5081502;28;20238;-68
2022/04/19 08:24:18;;;;;;;6.63;3.57;;;;;;;15.23;41.79;100265.25;5087680;28;20923;-68
2022/04/19 08:26:47;;;;;;;14.60;4.13;;;;;;;15.35;41.67;100257.63;5087595;28;20260;-67
2022/04/19 08:29:15;;;;;;;7.30;3.90;;;;;;;15.44;41.87;100261.88;5085359;28;20210;-68
2022/04/19 08:31:43;;;;;;;8.77;4.63;;;;;;;15.61;41.90;100259.88;5088573;28;20825;-68
2022/04/19 08:34:11;;;;;;;8.87;3.70;;;;;;;15.70;41.54;100259.59;5085938;28;20210;-68
2022/04/19 08:36:42;;;;;;;9.83;4.97;;;;;;;15.85;41.56;100258.72;5090472;28;20271;-67
2022/04/19 08:39:10;;;;;;;10.67;4.60;;;;;;;15.99;41.60;100258.72;5090695;28;20625;-68
2022/04/19 08:41:38;;;;;;;12.07;4.57;;;;;;;16.10;40.97;100258.19;5091732;28;20294;-68
2022/04/19 08:44:08;;;;;;;7.17;3.83;;;;;;;16.19;40.82;100257.06;5090619;28;20232;-69
2022/04/19 08:46:39;;;;;;;10.40;4.50;;;;;;;16.32;40.40;100255.56;5089291;28;20267;-70
2022/04/19 08:49:07;;;;;;;8.27;4.17;;;;;;;16.38;39.51;100257.47;5091197;28;20221;-70
2022/04/19 08:51:37;;;;;;;5.73;3.63;;;;;;;16.48;39.71;100249.94;5088124;28;20312;-70
2022/04/19 08:59:54;;;;;;;9.30;5.13;;;;;;;16.84;40.04;100253.38;5038678;28;20232;-69
2022/04/19 09:02:23;;;;;;;7.03;4.27;;;;;;;17.02;39.36;100252.91;5081543;28;20211;-70
2022/04/19 09:04:52;;;;;;;8.60;4.33;;;;;;;17.05;39.04;100249.03;5088504;28;20209;-70
2022/04/19 09:07:21;;;;;;;6.50;3.50;;;;;;;17.09;39.51;100245.75;5090468;28;20218;-67
2022/04/19 09:10:00;;;;;;;9.27;4.40;;;;;;;17.31;39.01;100254.56;5088122;28;20210;-71
2022/04/19 09:12:28;;;;;;;7.83;4.37;;;;;;;17.46;38.80;100246.38;5090363;28;20272;-72
2022/04/19 09:14:59;;;;;;;10.43;4.27;;;;;;;17.62;38.92;100241.53;5085663;28;20630;-68
2022/04/19 09:17:32;;;;;;;10.43;4.70;;;;;;;17.85;38.80;100249.28;5087886;28;20290;-67
2022/04/19 09:20:15;;;;;;;7.83;4.30;;;;;;;18.04;38.19;100242.31;5085612;28;20221;-68
2022/04/19 09:22:43;;;;;;;8.67;5.10;;;;;;;18.15;37.46;100244.41;5088660;28;20206;-68
2022/04/19 09:25:17;;;;;;;12.47;4.77;;;;;;;18.23;36.67;100246.91;5090397;28;20214;-68
2022/04/19 09:27:45;;;;;;;9.83;5.03;;;;;;;18.33;36.99;100238.47;5091294;28;20580;-68
2022/04/19 09:30:19;;;;;;;10.53;4.83;;;;;;;18.56;36.64;100235.41;5090409;28;20617;-67
2022/04/19 09:33:05;;;;;;;7.53;4.93;;;;;;;18.58;35.87;100231.50;5087366;28;20738;-67
2022/04/19 09:35:34;;;;;;;9.90;5.23;;;;;;;18.76;36.50;100225.50;5083649;28;20206;-68
2022/04/19 09:38:02;;;;;;;9.57;4.93;;;;;;;18.95;36.31;100216.63;5084072;28;20217;-68
2022/04/19 09:40:32;;;;;;;9.57;5.00;;;;;;;19.03;35.47;100221.78;5086604;28;20301;-68
2022/04/19 09:43:10;;;;;;;7.97;4.53;;;;;;;19.22;34.96;100219.28;5087729;28;20195;-71
2022/04/19 09:45:56;;;;;;;9.10;4.30;;;;;;;19.33;35.46;100214.06;5088586;28;20229;-67
2022/04/19 09:48:26;;;;;;;8.53;5.07;;;;;;;19.51;35.45;100208.88;5090970;28;20499;-68
2022/04/19 09:50:58;;;;;;;12.93;4.83;;;;;;;19.81;34.55;100209.16;5087282;28;20210;-68
2022/04/19 09:53:28;;;;;;;9.40;4.53;;;;;;;19.86;34.59;100197.75;5088693;28;20321;-70
2022/04/19 09:55:58;;;;;;;13.07;4.37;;;;;;;19.69;35.60;100199.28;5086749;28;20689;-68
2022/04/19 09:58:27;;;;;;;7.83;4.33;;;;;;;19.89;34.84;100200.81;5090325;28;22105;-70
2022/04/19 10:00:57;;;;;;;8.50;3.87;;;;;;;20.06;34.60;100192.25;5089861;28;20210;-70
2022/04/19 10:08:55;;;;;;;10.63;4.07;;;;;;;20.82;33.16;100194.81;5088870;28;20195;-70
2022/04/19 10:11:26;;;;;;;8.13;3.90;;;;;;;20.96;33.34;100193.63;5086904;28;20238;-71
2022/04/19 10:13:55;;;;;;;10.47;4.20;;;;;;;21.19;33.02;100180.38;5089621;28;20276;-71
2022/04/19 10:16:26;;;;;;;5.80;3.80;;;;;;;21.19;33.18;100180.38;5088902;28;21998;-71
2022/04/19 10:18:53;;;;;;;8.57;4.07;;;;;;;20.88;31.83;100178.59;5088942;28;20265;-69
2022/04/19 10:21:25;;;;;;;6.87;4.77;;;;;;;20.92;32.11;100181.66;5086603;28;20211;-71
2022/04/19 10:24:09;;;;;;;6.60;4.30;;;;;;;20.85;32.40;100178.19;5088391;28;20337;-70
2022/04/19 10:26:43;;;;;;;11.13;5.47;;;;;;;20.85;30.73;100180.88;5087080;28;20205;-70
2022/04/19 10:29:19;;;;;;;9.13;5.20;;;;;;;21.18;31.05;100176.03;5087448;28;20576;-69
2022/04/19 10:32:01;;;;;;;7.17;4.73;;;;;;;21.27;32.00;100174.69;5088213;28;20194;-69
2022/04/19 10:34:31;;;;;;;7.83;5.07;;;;;;;21.32;30.87;100179.41;5086690;28;20206;-69
2022/04/19 10:37:19;;;;;;;8.33;5.20;;;;;;;21.60;30.78;100176.16;5088006;28;20227;-69
2022/04/19 10:39:48;;;;;;;8.40;5.33;;;;;;;22.02;30.66;100169.78;5088566;28;20226;-69
2022/04/19 10:42:29;;;;;;;11.07;6.20;;;;;;;22.75;28.81;100176.75;5087812;28;20293;-70
2022/04/19 10:44:57;;;;;;;10.70;5.30;;;;;;;24.15;27.14;100166.41;5088760;28;20202;-71
2022/04/19 10:47:28;;;;;;;10.00;5.90;;;;;;;25.01;24.94;100164.31;5086905;28;20273;-71
2022/04/19 10:50:00;;;;;;;11.27;5.33;;;;;;;26.15;24.34;100169.75;5086276;28;20285;-68
2022/04/19 10:52:48;;;;;;;8.70;5.97;;;;;;;28.30;21.73;100160.59;5085178;28;20234;-69
2022/04/19 10:55:28;;;;;;;10.88;5.70;;;;;;;31.09;19.76;100161.94;5079350;28;20321;-70
2022/04/19 10:58:17;;;;;;;11.00;6.07;;;;;;;33.57;17.31;100145.00;5082439;28;20264;-69
2022/04/19 11:00:48;;;;;;;9.80;5.90;;;;;;;35.62;15.68;100147.75;5084990;28;20222;-69
2022/04/19 11:03:49;;;;;;;8.73;5.82;;;;;;;37.10;14.31;100136.97;5083728;28;20214;-72
2022/04/19 11:06:32;;;;;;;14.88;6.13;;;;;;;35.18;15.16;100135.78;5087555;28;20478;-71
2022/04/19 11:09:10;;;;;;;11.57;6.05;;;;;;;35.04;15.91;100132.31;5086363;28;20666;-69
2022/04/19 11:11:46;;;;;;;11.52;6.13;;;;;;;36.55;14.37;100110.19;5085058;28;20269;-71
2022/04/19 11:14:46;;;;;;;11.15;6.38;;;;;;;38.43;13.25;100110.44;5086364;28;20710;-71
2022/04/19 11:17:28;;;;;;;13.40;6.65;;;;;;;40.44;12.16;100104.84;5083487;28;20557;-71
2022/04/19 11:20:10;;;;;;;9.85;5.18;;;;;;;41.61;11.36;100095.78;5081837;28;20227;-69
2022/04/19 11:22:47;;;;;;;13.85;5.60;;;;;;;42.89;10.02;100101.03;5088140;28;20199;-68
2022/04/19 11:25:15;;;;;;;8.85;5.80;;;;;;;40.62;11.13;100098.94;5084260;28;20211;-70
2022/04/19 11:28:14;;;;;;;7.50;5.70;;;;;;;39.92;12.12;100101.41;5086612;28;20199;-69
2022/04/19 11:30:47;;;;;;;8.70;5.72;;;;;;;40.07;11.67;100097.84;5087544;28;20519;-69
2022/04/19 11:33:25;;;;;;;7.00;5.90;;;;;;;39.17;12.63;100092.75;5087279;28;20207;-67
2022/04/19 11:36:05;;;;;;;8.73;6.07;;;;;;;39.04;12.82;100092.78;5082318;28;20574;-70
2022/04/19 11:38:34;;;;;;;10.07;5.57;;;;;;;38.49;12.90;100087.72;5087005;28;20206;-69
2022/04/19 11:46:45;;;;;;;10.23;7.43;;;;;;;32.88;16.89;100091.22;5088220;28;20697;-68
2022/04/19 11:49:34;;;;;;;9.52;6.70;;;;;;;31.38;17.73;100088.72;5081297;28;20777;-68
2022/04/19 11:52:09;;;;;;;10.27;6.65;;;;;;;30.18;18.89;100089.72;5081423;28;20203;-68
2022/04/19 11:54:37;;;;;;;9.02;6.10;;;;;;;29.06;19.00;100084.06;5082440;28;20303;-68
2022/04/19 11:57:06;;;;;;;8.80;6.18;;;;;;;28.58;18.67;100091.03;5080001;28;20225;-68
2022/04/19 11:59:36;;;;;;;9.63;6.18;;;;;;;27.99;19.18;100089.66;5083439;28;20234;-68
2022/04/19 12:02:14;;;;;;;9.98;6.22;;;;;;;27.24;19.55;100102.00;5082346;28;20685;-69
2022/04/19 12:04:52;;;;;;;38.72;9.85;;;;;;;26.72;20.66;100106.63;5084390;28;20203;-70
2022/04/19 12:07:21;;;;;;;10.13;6.10;;;;;;;26.73;21.56;100094.66;5082678;28;20206;-70
2022/04/19 12:09:50;;;;;;;8.00;5.10;;;;;;;26.95;20.50;100092.63;5079272;28;20238;-70
2022/04/19 12:12:19;;;;;;;10.38;5.55;;;;;;;26.40;21.06;100093.88;5088471;28;20301;-71
2022/04/19 12:14:49;;;;;;;8.90;5.57;;;;;;;25.88;20.95;100088.25;5089820;28;20571;-70
2022/04/19 12:17:23;;;;;;;10.95;5.50;;;;;;;27.02;21.02;100090.47;5091747;28;20282;-71